createdAt,value
2022-11-21T00:00:13.280Z,3.81
2022-11-21T00:01:15.649Z,3.54
2022-11-21T00:02:18.398Z,4.20
2022-11-21T00:03:20.809Z,4.38
2022-11-21T00:04:23.371Z,8.22
2022-11-21T00:05:25.797Z,9.59
2022-11-21T00:06:28.350Z,8.05
2022-11-21T00:07:30.886Z,11.49
2022-11-21T00:08:33.309Z,12.19
2022-11-21T00:09:35.712Z,6.03
2022-11-21T00:10:38.435Z,6.34
2022-11-21T00:11:41.082Z,7.05
2022-11-21T00:12:43.589Z,4.41
2022-11-21T00:13:46.056Z,5.38
2022-11-21T00:14:48.414Z,5.01
2022-11-21T00:15:50.862Z,4.12
2022-11-21T00:16:57.275Z,3.55
2022-11-21T00:17:57.829Z,4.15
2022-11-21T00:19:00.288Z,7.57
2022-11-21T00:20:03.354Z,6.34
2022-11-21T00:21:05.752Z,4.68
2022-11-21T00:22:08.168Z,4.67
2022-11-21T00:23:10.598Z,5.23
2022-11-21T00:24:12.964Z,3.10
2022-11-21T00:25:15.461Z,3.03
2022-11-21T00:26:18.420Z,3.36
2022-11-21T00:27:20.903Z,2.46
2022-11-21T00:28:23.412Z,3.45
2022-11-21T00:29:25.868Z,3.77
2022-11-21T00:30:28.832Z,3.89
2022-11-21T00:31:31.638Z,3.70
2022-11-21T00:32:33.998Z,2.97
2022-11-21T00:33:36.535Z,2.58
2022-11-21T00:34:39.010Z,4.59
2022-11-21T00:35:41.406Z,2.97
2022-11-21T00:36:44.600Z,3.49
2022-11-21T00:37:47.026Z,4.95
2022-11-21T00:38:49.537Z,4.85
2022-11-21T00:39:51.890Z,8.97
2022-11-21T00:40:54.575Z,5.91
2022-11-21T00:41:57.225Z,8.98
2022-11-21T00:42:59.675Z,7.26
2022-11-21T00:44:02.062Z,11.68
2022-11-21T00:45:04.614Z,10.81
2022-11-21T00:46:07.600Z,7.65
2022-11-21T00:47:09.963Z,9.80
2022-11-21T00:48:12.353Z,11.25
2022-11-21T00:49:14.767Z,12.41
2022-11-21T00:50:18.077Z,17.06
2022-11-21T00:51:20.483Z,12.25
2022-11-21T00:52:23.360Z,8.94
2022-11-21T00:53:25.756Z,9.51
2022-11-21T00:54:28.597Z,9.37
2022-11-21T00:55:31.376Z,7.23
2022-11-21T00:56:34.026Z,7.26
2022-11-21T00:57:36.404Z,5.99
2022-11-21T00:58:38.751Z,6.11
2022-11-21T00:59:41.134Z,5.49
2022-11-21T01:00:43.712Z,4.60
2022-11-21T01:01:46.445Z,4.94
2022-11-21T01:02:48.901Z,5.10
2022-11-21T01:03:51.347Z,4.75
2022-11-21T01:04:53.855Z,8.15
2022-11-21T01:05:56.345Z,5.93
2022-11-21T01:06:58.870Z,4.16
2022-11-21T01:08:01.454Z,8.33
2022-11-21T01:09:03.853Z,6.42
2022-11-21T01:10:06.529Z,4.59
2022-11-21T01:11:08.914Z,6.81
2022-11-21T01:12:11.566Z,3.29
2022-11-21T01:13:14.220Z,2.21
2022-11-21T01:14:16.715Z,3.03
2022-11-21T01:15:19.165Z,3.15
2022-11-21T01:16:23.340Z,4.26
2022-11-21T01:17:25.730Z,4.15
2022-11-21T01:18:28.088Z,10.65
2022-11-21T01:19:30.439Z,6.51
2022-11-21T01:20:32.937Z,4.45
2022-11-21T01:21:35.605Z,5.25
2022-11-21T01:22:38.049Z,4.81
2022-11-21T01:23:40.400Z,2.28
2022-11-21T01:24:42.853Z,2.67
2022-11-21T01:25:45.322Z,2.05
2022-11-21T01:26:47.674Z,2.45
2022-11-21T01:27:50.022Z,2.89
2022-11-21T01:28:52.374Z,2.21
2022-11-21T01:29:54.731Z,2.05
2022-11-21T01:30:57.547Z,1.89
2022-11-21T01:31:59.938Z,1.95
2022-11-21T01:33:02.355Z,1.90
2022-11-21T01:34:04.847Z,2.48
2022-11-21T01:35:07.270Z,4.90
2022-11-21T01:36:10.244Z,3.08
2022-11-21T01:37:12.899Z,4.40
2022-11-21T01:38:15.426Z,4.01
2022-11-21T01:39:17.919Z,3.98
2022-11-21T01:40:20.584Z,3.61
2022-11-21T01:41:23.011Z,5.07
2022-11-21T01:42:25.382Z,9.79
2022-11-21T01:43:27.930Z,2.73
2022-11-21T01:44:30.626Z,4.68
2022-11-21T01:45:33.333Z,2.36
2022-11-21T01:46:36.021Z,2.03
2022-11-21T01:47:38.365Z,3.05
2022-11-21T01:48:40.719Z,2.72
2022-11-21T01:49:43.168Z,2.21
2022-11-21T01:50:45.768Z,2.29
2022-11-21T01:51:48.418Z,3.12
2022-11-21T01:52:50.769Z,2.76
2022-11-21T01:53:53.132Z,1.61
2022-11-21T01:54:55.487Z,2.96
2022-11-21T01:55:57.948Z,2.16
2022-11-21T01:57:00.546Z,2.47
2022-11-21T01:58:02.900Z,2.04
2022-11-21T01:59:05.859Z,2.30
2022-11-21T02:00:10.042Z,2.15
2022-11-21T02:01:12.455Z,1.89
2022-11-21T02:02:15.120Z,1.74
2022-11-21T02:03:17.471Z,1.21
2022-11-21T02:04:19.815Z,1.71
2022-11-21T02:05:22.165Z,2.03
2022-11-21T02:06:25.161Z,3.90
2022-11-21T02:07:27.723Z,3.37
2022-11-21T02:08:30.208Z,1.44
2022-11-21T02:09:32.562Z,1.37
2022-11-21T02:10:35.215Z,1.47
2022-11-21T02:11:37.680Z,2.01
2022-11-21T02:12:40.099Z,1.53
2022-11-21T02:13:42.446Z,2.37
2022-11-21T02:14:44.806Z,3.04
2022-11-21T02:15:47.254Z,1.36
2022-11-21T02:16:49.985Z,1.56
2022-11-21T02:17:52.683Z,2.44
2022-11-21T02:18:55.034Z,2.08
2022-11-21T02:19:57.479Z,1.21
2022-11-21T02:21:00.030Z,4.46
2022-11-21T02:22:02.425Z,5.23
2022-11-21T02:23:04.917Z,0.92
2022-11-21T02:24:07.478Z,6.30
2022-11-21T02:25:09.939Z,1.28
2022-11-21T02:26:14.216Z,1.16
2022-11-21T02:27:16.655Z,0.86
2022-11-21T02:28:19.345Z,0.93
2022-11-21T02:29:21.999Z,0.87
2022-11-21T02:30:24.354Z,0.83
2022-11-21T02:31:26.726Z,1.12
2022-11-21T02:32:29.126Z,1.07
2022-11-21T02:33:31.616Z,0.94
2022-11-21T02:34:33.972Z,1.05
2022-11-21T02:35:36.327Z,1.13
2022-11-21T02:36:38.888Z,1.67
2022-11-21T02:37:41.337Z,0.66
2022-11-21T02:38:43.821Z,1.05
2022-11-21T02:39:46.173Z,1.88
2022-11-21T02:40:48.628Z,1.88
2022-11-21T02:41:51.116Z,3.11
2022-11-21T02:42:53.532Z,2.77
2022-11-21T02:43:56.003Z,3.84
2022-11-21T02:44:58.440Z,6.62
2022-11-21T02:46:00.914Z,6.47
2022-11-21T02:47:03.307Z,8.79
2022-11-21T02:48:05.712Z,4.49
2022-11-21T02:49:08.150Z,5.30
2022-11-21T02:50:10.803Z,4.04
2022-11-21T02:51:13.156Z,3.13
2022-11-21T02:52:15.516Z,4.14
2022-11-21T02:53:17.868Z,4.64
2022-11-21T02:54:20.240Z,3.33
2022-11-21T02:55:22.710Z,5.72
2022-11-21T02:56:25.300Z,4.96
2022-11-21T02:57:28.219Z,4.19
2022-11-21T02:58:30.587Z,8.41
2022-11-21T02:59:32.970Z,7.15
2022-11-21T03:00:35.691Z,5.78
2022-11-21T03:01:39.582Z,5.52
2022-11-21T03:02:42.067Z,5.28
2022-11-21T03:03:44.422Z,3.79
2022-11-21T03:04:46.924Z,2.98
2022-11-21T03:05:49.386Z,2.65
2022-11-21T03:06:51.938Z,3.52
2022-11-21T03:07:54.325Z,2.37
2022-11-21T03:08:56.803Z,1.99
2022-11-21T03:09:59.389Z,4.01
2022-11-21T03:11:02.060Z,2.21
2022-11-21T03:12:04.419Z,1.85
2022-11-21T03:13:07.076Z,1.56
2022-11-21T03:14:09.428Z,1.79
2022-11-21T03:15:11.817Z,1.76
2022-11-21T03:16:15.125Z,1.47
2022-11-21T03:17:17.581Z,2.21
2022-11-21T03:18:19.940Z,3.47
2022-11-21T03:19:22.430Z,3.07
2022-11-21T03:20:24.918Z,2.05
2022-11-21T03:21:27.276Z,2.47
2022-11-21T03:22:29.649Z,2.43
2022-11-21T03:23:32.005Z,2.42
2022-11-21T03:24:34.368Z,3.45
2022-11-21T03:25:36.851Z,2.01
2022-11-21T03:26:39.357Z,3.15
2022-11-21T03:27:42.095Z,1.88
2022-11-21T03:28:44.538Z,1.10
2022-11-21T03:29:46.894Z,1.43
2022-11-21T03:30:49.501Z,1.21
2022-11-21T03:31:51.855Z,0.99
2022-11-21T03:32:54.308Z,0.99
2022-11-21T03:33:56.658Z,2.07
2022-11-21T03:34:59.113Z,0.93
2022-11-21T03:36:01.547Z,1.65
2022-11-21T03:37:05.819Z,1.95
2022-11-21T03:38:08.269Z,2.39
2022-11-21T03:39:10.658Z,2.23
2022-11-21T03:40:14.031Z,2.71
2022-11-21T03:41:16.466Z,3.40
2022-11-21T03:42:19.122Z,3.16
2022-11-21T03:43:21.480Z,3.07
2022-11-21T03:44:23.889Z,2.28
2022-11-21T03:45:26.293Z,2.20
2022-11-21T03:46:28.779Z,2.31
2022-11-21T03:47:31.137Z,2.40
2022-11-21T03:48:33.598Z,2.34
2022-11-21T03:49:36.253Z,1.59
2022-11-21T03:50:38.820Z,1.45
2022-11-21T03:51:41.409Z,3.35
2022-11-21T03:52:43.869Z,0.94
2022-11-21T03:53:46.329Z,1.61
2022-11-21T03:54:48.780Z,1.23
2022-11-21T03:55:51.173Z,1.03
2022-11-21T03:56:53.667Z,1.45
2022-11-21T03:57:56.046Z,1.31
2022-11-21T03:58:58.488Z,1.26
2022-11-21T04:00:00.839Z,0.61
2022-11-21T04:01:03.250Z,1.31
2022-11-21T04:02:06.098Z,0.89
2022-11-21T04:03:08.461Z,1.29
2022-11-21T04:04:10.871Z,1.32
2022-11-21T04:05:13.288Z,0.99
2022-11-21T04:06:16.518Z,0.64
2022-11-21T04:07:19.065Z,0.84
2022-11-21T04:08:21.794Z,0.74
2022-11-21T04:09:24.229Z,1.12
2022-11-21T04:10:26.793Z,1.02
2022-11-21T04:11:29.475Z,0.95
2022-11-21T04:12:31.992Z,1.07
2022-11-21T04:13:35.091Z,0.82
2022-11-21T04:14:38.516Z,0.93
2022-11-21T04:15:40.989Z,0.62
2022-11-21T04:16:43.662Z,4.07
2022-11-21T04:17:46.113Z,1.49
2022-11-21T04:18:48.485Z,2.10
2022-11-21T04:19:51.362Z,0.73
2022-11-21T04:20:54.117Z,1.57
2022-11-21T04:21:56.473Z,0.88
2022-11-21T04:22:58.864Z,1.08
2022-11-21T04:24:01.324Z,1.39
2022-11-21T04:25:03.800Z,0.62
2022-11-21T04:26:09.255Z,1.09
2022-11-21T04:27:14.345Z,1.18
2022-11-21T04:28:18.134Z,1.09
2022-11-21T04:29:24.013Z,1.02
2022-11-21T04:30:32.862Z,1.12
2022-11-21T04:31:35.786Z,1.13
2022-11-21T04:32:38.566Z,1.23
2022-11-21T04:33:41.107Z,2.49
2022-11-21T04:34:43.566Z,2.33
2022-11-21T04:35:46.114Z,1.19
2022-11-21T04:36:48.593Z,2.15
2022-11-21T04:37:51.029Z,1.89
2022-11-21T04:38:53.534Z,1.61
2022-11-21T04:39:56.032Z,1.49
2022-11-21T04:40:58.588Z,1.11
2022-11-21T04:42:00.962Z,2.72
2022-11-21T04:43:03.908Z,1.52
2022-11-21T04:44:06.405Z,2.07
2022-11-21T04:45:08.756Z,1.91
2022-11-21T04:46:12.925Z,1.76
2022-11-21T04:47:15.393Z,1.62
2022-11-21T04:48:17.851Z,2.77
2022-11-21T04:49:20.537Z,2.03
2022-11-21T04:50:23.294Z,5.22
2022-11-21T04:51:25.650Z,2.47
2022-11-21T04:52:28.020Z,2.31
2022-11-21T04:53:30.401Z,2.91
2022-11-21T04:54:32.802Z,2.15
2022-11-21T04:55:35.163Z,1.98
2022-11-21T04:56:37.714Z,3.39
2022-11-21T04:57:40.065Z,2.61
2022-11-21T04:58:42.423Z,2.73
2022-11-21T04:59:45.246Z,3.95
2022-11-21T05:00:47.824Z,4.16
2022-11-21T05:01:50.286Z,4.66
2022-11-21T05:02:52.660Z,3.66
2022-11-21T05:03:55.123Z,3.49
2022-11-21T05:04:57.515Z,4.89
2022-11-21T05:05:59.910Z,4.82
2022-11-21T05:07:02.373Z,3.65
2022-11-21T05:08:04.985Z,3.87
2022-11-21T05:09:07.640Z,3.47
2022-11-21T05:10:11.884Z,4.36
2022-11-21T05:11:14.243Z,3.18
2022-11-21T05:12:16.600Z,7.42
2022-11-21T05:13:18.946Z,5.44
2022-11-21T05:14:21.599Z,5.55
2022-11-21T05:15:24.993Z,5.06
2022-11-21T05:16:28.479Z,5.31
2022-11-21T05:17:30.948Z,5.42
2022-11-21T05:18:33.303Z,5.18
2022-11-21T05:19:35.657Z,5.89
2022-11-21T05:20:38.258Z,10.93
2022-11-21T05:21:40.902Z,4.23
2022-11-21T05:22:43.555Z,5.89
2022-11-21T05:23:46.009Z,6.52
2022-11-21T05:24:48.365Z,4.23
2022-11-21T05:25:51.075Z,4.34
2022-11-21T05:26:53.636Z,3.83
2022-11-21T05:27:56.025Z,3.15
2022-11-21T05:28:58.465Z,3.63
2022-11-21T05:30:01.017Z,3.13
2022-11-21T05:31:03.503Z,4.71
2022-11-21T05:32:05.859Z,4.81
2022-11-21T05:33:08.215Z,4.83
2022-11-21T05:34:10.570Z,6.11
2022-11-21T05:35:13.019Z,6.69
2022-11-21T05:36:16.425Z,4.56
2022-11-21T05:37:18.780Z,9.49
2022-11-21T05:38:21.126Z,6.05
2022-11-21T05:39:23.778Z,7.56
2022-11-21T05:40:26.550Z,11.07
2022-11-21T05:41:28.956Z,17.70
2022-11-21T05:42:31.409Z,16.10
2022-11-21T05:43:33.890Z,13.78
2022-11-21T05:44:36.331Z,15.95
2022-11-21T05:45:38.826Z,14.94
2022-11-21T05:46:41.650Z,15.54
2022-11-21T05:47:44.200Z,15.28
2022-11-21T05:48:46.546Z,18.19
2022-11-21T05:49:48.931Z,17.99
2022-11-21T05:50:51.582Z,9.37
2022-11-21T05:51:53.957Z,12.40
2022-11-21T05:52:56.413Z,8.74
2022-11-21T05:53:58.850Z,11.09
2022-11-21T05:55:01.202Z,7.17
2022-11-21T05:56:03.755Z,5.75
2022-11-21T05:57:06.431Z,4.53
2022-11-21T05:58:08.784Z,5.21
2022-11-21T05:59:11.150Z,3.76
2022-11-21T06:00:15.457Z,4.91
2022-11-21T06:01:17.916Z,3.43
2022-11-21T06:02:20.339Z,2.74
2022-11-21T06:03:22.699Z,2.89
2022-11-21T06:04:25.354Z,2.12
2022-11-21T06:05:28.227Z,1.76
2022-11-21T06:06:30.793Z,3.92
2022-11-21T06:07:33.310Z,6.29
2022-11-21T06:08:35.820Z,4.95
2022-11-21T06:09:38.296Z,3.51
2022-11-21T06:10:40.899Z,4.47
2022-11-21T06:11:43.251Z,5.82
2022-11-21T06:12:45.848Z,7.23
2022-11-21T06:13:48.212Z,8.56
2022-11-21T06:14:50.694Z,10.90
2022-11-21T06:15:53.098Z,8.75
2022-11-21T06:16:55.549Z,12.44
2022-11-21T06:17:57.949Z,9.47
2022-11-21T06:19:00.326Z,9.17
2022-11-21T06:20:02.993Z,10.43
2022-11-21T06:21:05.444Z,8.73
2022-11-21T06:22:07.938Z,8.81
2022-11-21T06:23:10.325Z,7.73
2022-11-21T06:24:12.826Z,10.02
2022-11-21T06:25:15.213Z,8.23
2022-11-21T06:26:18.381Z,6.47
2022-11-21T06:27:20.787Z,7.39
2022-11-21T06:28:23.590Z,10.12
2022-11-21T06:29:27.071Z,6.04
2022-11-21T06:30:29.749Z,8.15
2022-11-21T06:31:32.194Z,8.25
2022-11-21T06:32:34.747Z,6.75
2022-11-21T06:33:37.184Z,5.39
2022-11-21T06:34:39.744Z,5.28
2022-11-21T06:35:42.436Z,6.09
2022-11-21T06:36:45.104Z,5.25
2022-11-21T06:37:53.217Z,6.49
2022-11-21T06:38:51.905Z,7.78
2022-11-21T06:39:54.348Z,7.17
2022-11-21T06:40:59.496Z,4.89
2022-11-21T06:42:02.220Z,6.10
2022-11-21T06:43:04.587Z,7.83
2022-11-21T06:44:07.231Z,9.61
2022-11-21T06:45:12.893Z,12.77
2022-11-21T06:46:16.755Z,11.56
2022-11-21T06:47:19.173Z,13.19
2022-11-21T06:48:21.646Z,14.16
2022-11-21T06:49:24.145Z,15.68
2022-11-21T06:50:26.836Z,12.67
2022-11-21T06:51:29.260Z,15.25
2022-11-21T06:52:31.940Z,14.66
2022-11-21T06:53:34.396Z,20.08
2022-11-21T06:54:36.792Z,17.49
2022-11-21T06:55:39.158Z,19.56
2022-11-21T06:56:41.947Z,16.61
2022-11-21T06:57:44.306Z,23.73
2022-11-21T06:58:46.667Z,23.63
2022-11-21T06:59:49.258Z,29.17
2022-11-21T07:00:51.756Z,68.73
2022-11-21T07:01:54.168Z,94.01
2022-11-21T07:03:02.660Z,81.13
2022-11-21T07:04:01.093Z,84.34
2022-11-21T07:05:03.612Z,84.20
2022-11-21T07:06:06.299Z,69.41
2022-11-21T07:07:08.953Z,76.79
2022-11-21T07:08:13.431Z,69.55
2022-11-21T07:09:32.715Z,38.73
2022-11-21T07:10:20.689Z,54.48
2022-11-21T07:11:24.879Z,53.11
2022-11-21T07:12:27.386Z,35.43
2022-11-21T07:13:29.924Z,35.72
2022-11-21T07:14:32.370Z,42.75
2022-11-21T07:15:34.862Z,47.59
2022-11-21T07:16:37.521Z,47.43
2022-11-21T07:17:39.875Z,52.39
2022-11-21T07:18:42.474Z,37.81
2022-11-21T07:19:44.965Z,38.83
2022-11-21T07:20:47.638Z,46.23
2022-11-21T07:21:49.997Z,50.78
2022-11-21T07:22:52.357Z,56.55
2022-11-21T07:23:54.810Z,37.02
2022-11-21T07:24:57.263Z,56.61
2022-11-21T07:25:59.653Z,65.51
2022-11-21T07:27:02.422Z,84.92
2022-11-21T07:28:04.866Z,104.63
2022-11-21T07:29:07.425Z,83.09
2022-11-21T07:30:11.709Z,71.73
2022-11-21T07:31:14.545Z,18.12
2022-11-21T07:32:17.299Z,16.19
2022-11-21T07:33:19.652Z,13.65
2022-11-21T07:34:22.007Z,17.51
2022-11-21T07:35:24.665Z,15.88
2022-11-21T07:36:27.355Z,13.77
2022-11-21T07:37:30.109Z,14.96
2022-11-21T07:38:32.571Z,22.85
2022-11-21T07:39:35.047Z,16.49
2022-11-21T07:40:37.500Z,14.09
2022-11-21T07:41:39.893Z,9.55
2022-11-21T07:42:42.476Z,9.89
2022-11-21T07:43:44.939Z,11.19
2022-11-21T07:44:47.309Z,8.88
2022-11-21T07:45:49.748Z,9.74
2022-11-21T07:46:52.239Z,6.72
2022-11-21T07:47:54.590Z,6.10
2022-11-21T07:49:01.982Z,5.85
2022-11-21T07:50:01.367Z,6.40
2022-11-21T07:51:03.757Z,4.87
2022-11-21T07:52:06.394Z,5.07
2022-11-21T07:53:08.749Z,8.29
2022-11-21T07:54:11.124Z,6.96
2022-11-21T07:55:13.476Z,5.87
2022-11-21T07:56:16.531Z,4.19
2022-11-21T07:57:19.127Z,4.39
2022-11-21T07:58:21.497Z,4.65
2022-11-21T07:59:23.952Z,4.57
2022-11-21T08:00:26.653Z,4.99
2022-11-21T08:01:29.351Z,3.41
2022-11-21T08:02:32.011Z,4.60
2022-11-21T08:03:34.473Z,5.03
2022-11-21T08:04:36.938Z,5.11
2022-11-21T08:05:39.310Z,4.11
2022-11-21T08:06:41.850Z,4.20
2022-11-21T08:07:44.352Z,4.56
2022-11-21T08:08:47.037Z,6.89
2022-11-21T08:09:49.488Z,6.00
2022-11-21T08:10:52.041Z,8.72
2022-11-21T08:11:54.428Z,7.09
2022-11-21T08:12:56.919Z,7.31
2022-11-21T08:13:59.357Z,7.61
2022-11-21T08:15:01.721Z,10.94
2022-11-21T08:16:04.518Z,7.73
2022-11-21T08:17:06.982Z,7.47
2022-11-21T08:18:09.487Z,6.37
2022-11-21T08:19:11.874Z,6.37
2022-11-21T08:20:14.882Z,8.72
2022-11-21T08:21:19.832Z,8.13
2022-11-21T08:22:21.510Z,5.75
2022-11-21T08:23:24.140Z,6.73
2022-11-21T08:24:26.586Z,11.02
2022-11-21T08:25:29.140Z,10.53
2022-11-21T08:26:31.490Z,12.48
2022-11-21T08:27:33.949Z,6.82
2022-11-21T08:28:36.384Z,11.18
2022-11-21T08:29:38.949Z,9.51
2022-11-21T08:30:41.529Z,9.99
2022-11-21T08:31:44.111Z,9.95
2022-11-21T08:32:46.673Z,11.43
2022-11-21T08:33:49.151Z,16.49
2022-11-21T08:34:51.638Z,12.64
2022-11-21T08:35:54.096Z,10.07
2022-11-21T08:36:56.704Z,10.48
2022-11-21T08:37:59.086Z,10.93
2022-11-21T08:39:01.692Z,7.85
2022-11-21T08:40:04.645Z,4.94
2022-11-21T08:41:07.203Z,3.05
2022-11-21T08:42:09.710Z,2.61
2022-11-21T08:43:12.381Z,3.64
2022-11-21T08:44:14.850Z,6.73
2022-11-21T08:45:17.198Z,8.02
2022-11-21T08:46:19.762Z,9.10
2022-11-21T08:47:22.230Z,8.18
2022-11-21T08:48:24.595Z,9.75
2022-11-21T08:49:27.072Z,9.29
2022-11-21T08:50:29.835Z,11.81
2022-11-21T08:51:32.295Z,12.32
2022-11-21T08:52:34.756Z,12.15
2022-11-21T08:53:37.218Z,20.70
2022-11-21T08:54:39.938Z,14.55
2022-11-21T08:55:42.291Z,13.19
2022-11-21T08:56:44.894Z,15.53
2022-11-21T08:57:47.889Z,14.55
2022-11-21T08:58:50.306Z,15.06
2022-11-21T08:59:52.795Z,14.89
2022-11-21T09:00:55.269Z,24.75
2022-11-21T09:01:57.642Z,20.63
2022-11-21T09:03:00.106Z,29.20
2022-11-21T09:04:02.545Z,33.17
2022-11-21T09:05:04.986Z,24.01
2022-11-21T09:06:08.266Z,25.95
2022-11-21T09:07:10.654Z,28.09
2022-11-21T09:08:13.096Z,28.36
2022-11-21T09:09:19.345Z,15.36
2022-11-21T09:10:19.969Z,26.58
2022-11-21T09:11:22.362Z,49.32
2022-11-21T09:12:24.830Z,43.03
2022-11-21T09:13:27.343Z,40.00
2022-11-21T09:14:30.128Z,28.72
2022-11-21T09:15:32.961Z,19.57
2022-11-21T09:16:35.728Z,16.54
2022-11-21T09:17:38.183Z,16.51
2022-11-21T09:18:40.973Z,13.64
2022-11-21T09:19:43.336Z,7.82
2022-11-21T09:20:46.124Z,10.07
2022-11-21T09:21:48.992Z,7.89
2022-11-21T09:22:51.503Z,8.34
2022-11-21T09:23:53.971Z,12.29
2022-11-21T09:24:56.418Z,9.04
2022-11-21T09:25:58.848Z,6.51
2022-11-21T09:27:01.407Z,10.20
2022-11-21T09:28:03.770Z,7.13
2022-11-21T09:29:06.223Z,8.39
2022-11-21T09:30:09.109Z,9.18
2022-11-21T09:31:11.515Z,7.09
2022-11-21T09:32:14.103Z,9.57
2022-11-21T09:33:17.721Z,11.05
2022-11-21T09:34:20.436Z,8.87
2022-11-21T09:35:22.798Z,11.04
2022-11-21T09:36:25.391Z,14.21
2022-11-21T09:37:27.749Z,11.37
2022-11-21T09:38:30.438Z,6.51
2022-11-21T09:39:33.462Z,10.57
2022-11-21T09:40:36.733Z,17.49
2022-11-21T09:41:39.216Z,15.71
2022-11-21T09:42:41.943Z,24.03
2022-11-21T09:43:44.560Z,33.09
2022-11-21T09:44:47.264Z,28.93
2022-11-21T09:45:50.115Z,27.28
2022-11-21T09:46:52.756Z,26.58
2022-11-21T09:47:55.505Z,21.48
2022-11-21T09:48:57.961Z,22.95
2022-11-21T09:50:00.409Z,15.01
2022-11-21T09:51:02.763Z,10.40
2022-11-21T09:52:05.270Z,9.73
2022-11-21T09:53:07.863Z,10.12
2022-11-21T09:54:10.304Z,6.78
2022-11-21T09:55:12.761Z,6.98
2022-11-21T09:56:15.855Z,8.18
2022-11-21T09:57:18.377Z,6.94
2022-11-21T09:58:20.858Z,6.47
2022-11-21T09:59:23.340Z,6.43
2022-11-21T10:00:25.963Z,5.88
2022-11-21T10:01:28.739Z,6.93
2022-11-21T10:02:31.210Z,5.97
2022-11-21T10:03:33.679Z,6.43
2022-11-21T10:04:36.045Z,4.27
2022-11-21T10:05:38.932Z,5.23
2022-11-21T10:06:41.562Z,4.52
2022-11-21T10:07:44.238Z,3.85
2022-11-21T10:08:48.100Z,6.48
2022-11-21T10:09:50.837Z,4.62
2022-11-21T10:10:53.518Z,3.91
2022-11-21T10:11:55.966Z,4.36
2022-11-21T10:12:58.648Z,6.65
2022-11-21T10:14:02.476Z,4.07
2022-11-21T10:15:04.853Z,4.49
2022-11-21T10:16:08.082Z,4.89
2022-11-21T10:17:10.545Z,5.21
2022-11-21T10:18:13.089Z,4.69
2022-11-21T10:19:15.627Z,4.72
2022-11-21T10:20:18.415Z,4.62
2022-11-21T10:21:20.923Z,4.58
2022-11-21T10:22:23.590Z,5.20
2022-11-21T10:23:26.060Z,5.74
2022-11-21T10:24:28.782Z,6.17
2022-11-21T10:25:31.475Z,9.73
2022-11-21T10:26:34.158Z,9.51
2022-11-21T10:27:36.924Z,7.67
2022-11-21T10:28:39.308Z,6.56
2022-11-21T10:29:41.667Z,5.66
2022-11-21T10:30:44.236Z,7.62
2022-11-21T10:31:46.698Z,8.73
2022-11-21T10:32:49.173Z,6.75
2022-11-21T10:33:51.671Z,7.22
2022-11-21T10:34:54.165Z,7.71
2022-11-21T10:35:56.526Z,8.89
2022-11-21T10:36:59.285Z,9.37
2022-11-21T10:38:01.954Z,6.77
2022-11-21T10:39:04.436Z,7.23
2022-11-21T10:40:07.302Z,7.78
2022-11-21T10:41:09.654Z,7.70
2022-11-21T10:42:12.035Z,5.06
2022-11-21T10:43:14.688Z,12.28
2022-11-21T10:44:17.381Z,5.13
2022-11-21T10:45:19.758Z,4.72
2022-11-21T10:46:22.402Z,6.21
2022-11-21T10:47:24.768Z,6.23
2022-11-21T10:48:27.243Z,5.18
2022-11-21T10:49:29.731Z,6.03
2022-11-21T10:50:32.791Z,11.54
2022-11-21T10:51:35.253Z,8.69
2022-11-21T10:52:37.631Z,10.97
2022-11-21T10:53:40.080Z,10.04
2022-11-21T10:54:42.923Z,6.66
2022-11-21T10:55:45.282Z,7.92
2022-11-21T10:56:47.846Z,10.37
2022-11-21T10:57:50.342Z,6.15
2022-11-21T10:58:52.816Z,8.03
2022-11-21T10:59:55.333Z,7.81
2022-11-21T11:00:57.977Z,6.97
2022-11-21T11:02:00.672Z,11.97
2022-11-21T11:03:03.253Z,5.48
2022-11-21T11:04:27.840Z,10.57
2022-11-21T11:05:10.063Z,18.51
2022-11-21T11:06:14.320Z,14.16
2022-11-21T11:07:16.777Z,10.57
2022-11-21T11:08:19.668Z,8.01
2022-11-21T11:09:22.181Z,10.57
2022-11-21T11:10:28.137Z,4.38
2022-11-21T11:11:29.141Z,5.84
2022-11-21T11:12:31.903Z,8.71
2022-11-21T11:13:50.903Z,13.97
2022-11-21T11:14:39.146Z,14.50
2022-11-21T11:15:41.549Z,17.05
2022-11-21T11:16:44.409Z,15.73
2022-11-21T11:17:48.076Z,17.61
2022-11-21T11:18:50.663Z,19.99
2022-11-21T11:19:53.083Z,14.61
2022-11-21T11:20:55.793Z,7.78
2022-11-21T11:21:58.258Z,11.09
2022-11-21T11:23:00.746Z,7.37
2022-11-21T11:24:03.113Z,13.09
2022-11-21T11:25:05.571Z,15.50
2022-11-21T11:26:09.893Z,14.88
2022-11-21T11:27:12.350Z,19.13
2022-11-21T11:28:14.805Z,23.33
2022-11-21T11:29:17.258Z,19.01
2022-11-21T11:30:20.365Z,23.38
2022-11-21T11:31:22.855Z,27.84
2022-11-21T11:32:25.225Z,32.00
2022-11-21T11:33:27.733Z,31.27
2022-11-21T11:34:30.214Z,22.09
2022-11-21T11:35:32.775Z,27.69
2022-11-21T11:36:35.499Z,69.09
2022-11-21T11:37:40.847Z,27.20
2022-11-21T11:38:42.226Z,26.39
2022-11-21T11:39:44.685Z,32.56
2022-11-21T11:40:47.442Z,31.97
2022-11-21T11:41:49.877Z,31.65
2022-11-21T11:42:52.570Z,39.94
2022-11-21T11:43:55.051Z,40.59
2022-11-21T11:44:57.415Z,29.98
2022-11-21T11:45:59.863Z,30.58
2022-11-21T11:47:02.361Z,23.18
2022-11-21T11:48:04.817Z,34.03
2022-11-21T11:49:22.682Z,36.58
2022-11-21T11:50:13.400Z,36.35
2022-11-21T11:51:15.838Z,39.13
2022-11-21T11:52:18.232Z,33.58
2022-11-21T11:53:20.710Z,43.69
2022-11-21T11:54:23.153Z,74.66
2022-11-21T11:55:26.000Z,46.55
2022-11-21T11:56:28.554Z,47.12
2022-11-21T11:57:30.946Z,32.73
2022-11-21T11:58:33.422Z,23.62
2022-11-21T11:59:36.010Z,27.99
2022-11-21T12:00:39.015Z,28.89
2022-11-21T12:01:41.394Z,51.41
2022-11-21T12:02:44.080Z,18.95
2022-11-21T12:03:47.097Z,18.25
2022-11-21T12:04:49.652Z,29.45
2022-11-21T12:05:52.014Z,19.57
2022-11-21T12:09:03.349Z,26.69
2022-11-21T12:10:07.576Z,22.46
2022-11-21T12:11:10.044Z,30.29
2022-11-21T12:12:12.600Z,28.43
2022-11-21T12:13:15.087Z,17.91
2022-11-21T12:14:17.588Z,17.35
2022-11-21T12:15:20.038Z,20.45
2022-11-21T12:16:22.692Z,20.55
2022-11-21T12:17:25.186Z,25.03
2022-11-21T12:18:27.764Z,19.78
2022-11-21T12:19:30.689Z,16.74
2022-11-21T12:20:33.474Z,18.56
2022-11-21T12:21:35.972Z,20.85
2022-11-21T12:22:38.317Z,21.47
2022-11-21T12:23:40.919Z,25.37
2022-11-21T12:24:43.633Z,29.21
2022-11-21T12:25:47.365Z,25.10
2022-11-21T12:26:50.016Z,22.93
2022-11-21T12:27:52.514Z,23.67
2022-11-21T12:28:55.100Z,23.95
2022-11-21T12:29:58.030Z,18.87
2022-11-21T12:31:00.649Z,29.63
2022-11-21T12:32:03.135Z,17.45
2022-11-21T12:33:08.948Z,17.88
2022-11-21T12:34:09.879Z,15.05
2022-11-21T12:35:12.347Z,25.87
2022-11-21T12:36:18.262Z,28.91
2022-11-21T12:37:19.469Z,21.71
2022-11-21T12:38:21.842Z,36.08
2022-11-21T12:39:24.359Z,27.13
2022-11-21T12:40:26.798Z,19.17
2022-11-21T12:41:29.182Z,26.01
2022-11-21T12:42:31.604Z,28.45
2022-11-21T12:43:34.282Z,76.66
2022-11-21T12:44:36.981Z,38.11
2022-11-21T12:45:39.458Z,33.57
2022-11-21T12:46:42.220Z,35.40
2022-11-21T12:47:44.673Z,38.72
2022-11-21T12:48:47.294Z,82.73
2022-11-21T12:49:54.604Z,38.45
2022-11-21T12:50:54.189Z,70.37
2022-11-21T12:51:56.637Z,80.47
2022-11-21T12:52:59.177Z,32.41
2022-11-21T12:54:01.830Z,40.81
2022-11-21T12:55:04.329Z,33.69
2022-11-21T12:56:08.625Z,32.92
2022-11-21T12:57:11.073Z,37.20
2022-11-21T12:58:13.539Z,38.70
2022-11-21T12:59:15.893Z,37.68
2022-11-21T13:00:19.176Z,30.11
2022-11-21T13:01:22.261Z,127.15
2022-11-21T13:02:24.720Z,24.77
2022-11-21T13:03:27.106Z,44.91
2022-11-21T13:04:29.581Z,43.29
2022-11-21T13:05:31.965Z,58.32
2022-11-21T13:06:34.530Z,41.00
2022-11-21T13:07:37.081Z,36.85
2022-11-21T13:08:39.875Z,56.61
2022-11-21T13:09:42.296Z,51.30
2022-11-21T13:10:44.897Z,59.44
2022-11-21T13:11:47.275Z,93.09
2022-11-21T13:12:49.649Z,69.37
2022-11-21T13:13:52.285Z,40.01
2022-11-21T13:14:54.640Z,77.86
2022-11-21T13:15:57.167Z,52.83
2022-11-21T13:16:59.625Z,51.38
2022-11-21T13:18:02.091Z,34.03
2022-11-21T13:19:04.461Z,71.86
2022-11-21T13:20:07.682Z,152.87
2022-11-21T13:21:10.082Z,40.03
2022-11-21T13:22:12.622Z,52.27
2022-11-21T13:23:14.986Z,43.86
2022-11-21T13:24:17.434Z,48.16
2022-11-21T13:25:19.808Z,43.98
2022-11-21T13:26:22.809Z,44.93
2022-11-21T13:27:25.392Z,74.60
2022-11-21T13:28:28.038Z,86.68
2022-11-21T13:29:31.111Z,84.68
2022-11-21T13:30:33.870Z,92.91
2022-11-21T13:31:36.367Z,162.70
2022-11-21T13:32:38.718Z,99.61
2022-11-21T13:33:41.086Z,76.07
2022-11-21T13:34:43.445Z,35.53
2022-11-21T13:35:45.888Z,67.23
2022-11-21T13:36:48.592Z,149.53
2022-11-21T13:37:51.008Z,151.33
2022-11-21T13:38:53.458Z,266.26
2022-11-21T13:39:55.908Z,298.26
2022-11-21T13:40:58.995Z,274.75
2022-11-21T13:42:01.568Z,244.74
2022-11-21T13:43:31.192Z,180.69
2022-11-21T13:44:08.194Z,170.62
2022-11-21T13:45:10.759Z,239.59